createdAt,value
2019-02-05T00:00:01.426Z,17.72
2019-02-05T00:01:01.499Z,17.73
2019-02-05T00:02:01.857Z,17.71
2019-02-05T00:03:01.784Z,17.71
2019-02-05T00:04:01.766Z,17.7
2019-02-05T00:05:01.826Z,17.7
2019-02-05T00:06:01.409Z,17.71
2019-02-05T00:07:01.938Z,17.7
2019-02-05T00:08:01.637Z,17.69
2019-02-05T00:09:01.743Z,17.7
2019-02-05T00:10:01.911Z,17.69
2019-02-05T00:11:01.414Z,17.68
2019-02-05T00:12:01.872Z,17.67
2019-02-05T00:13:02.078Z,17.67
2019-02-05T00:14:01.375Z,17.66
2019-02-05T00:15:01.445Z,17.67
2019-02-05T00:16:01.766Z,17.66
2019-02-05T00:17:01.408Z,17.65
2019-02-05T00:18:01.689Z,17.66
2019-02-05T00:19:01.613Z,17.64
2019-02-05T00:20:01.481Z,17.64
2019-02-05T00:21:01.802Z,17.63
2019-02-05T00:22:01.916Z,17.63
2019-02-05T00:23:01.450Z,17.63
2019-02-05T00:24:01.592Z,17.63
2019-02-05T00:25:01.710Z,17.62
2019-02-05T00:26:06.033Z,17.62
2019-02-05T00:27:01.401Z,17.62
2019-02-05T00:28:02.066Z,17.62
2019-02-05T00:29:01.410Z,17.6
2019-02-05T00:30:01.883Z,17.6
2019-02-05T00:31:01.584Z,17.6
2019-02-05T00:32:02.066Z,17.6
2019-02-05T00:33:01.792Z,17.59
2019-02-05T00:34:02.077Z,17.59
2019-02-05T00:35:01.778Z,17.57
2019-02-05T00:36:01.576Z,17.58
2019-02-05T00:37:01.837Z,17.57
2019-02-05T00:38:01.411Z,17.57
2019-02-05T00:39:01.425Z,17.56
2019-02-05T00:40:01.946Z,17.56
2019-02-05T00:41:01.494Z,17.56
2019-02-05T00:42:01.760Z,17.55
2019-02-05T00:43:01.386Z,17.55
2019-02-05T00:44:01.471Z,17.56
2019-02-05T00:45:01.599Z,17.55
2019-02-05T00:46:01.520Z,17.55
2019-02-05T00:47:01.977Z,17.55
2019-02-05T00:48:01.781Z,17.53
2019-02-05T00:49:01.458Z,17.52
2019-02-05T00:50:01.848Z,17.53
2019-02-05T00:51:02.259Z,17.53
2019-02-05T00:52:01.698Z,17.53
2019-02-05T00:53:01.712Z,17.52
2019-02-05T00:54:02.253Z,17.51
2019-02-05T00:55:01.626Z,17.52
2019-02-05T00:56:01.445Z,17.52
2019-02-05T00:57:01.603Z,17.52
2019-02-05T00:58:01.440Z,17.51
2019-02-05T00:59:01.459Z,17.5
2019-02-05T01:00:01.713Z,17.5
2019-02-05T01:01:01.543Z,17.49
2019-02-05T01:02:01.674Z,17.48
2019-02-05T01:03:01.922Z,17.48
2019-02-05T01:04:01.933Z,17.47
2019-02-05T01:05:01.798Z,17.47
2019-02-05T01:06:02.503Z,17.47
2019-02-05T01:07:01.827Z,17.46
2019-02-05T01:08:01.619Z,17.46
2019-02-05T01:09:01.421Z,17.46
2019-02-05T01:10:01.828Z,17.47
2019-02-05T01:11:01.888Z,17.46
2019-02-05T01:12:01.481Z,17.45
2019-02-05T01:13:01.772Z,17.46
2019-02-05T01:14:01.953Z,17.45
2019-02-05T01:15:01.641Z,17.44
2019-02-05T01:16:01.491Z,17.44
2019-02-05T01:17:01.795Z,17.44
2019-02-05T01:18:01.733Z,17.44
2019-02-05T01:19:01.686Z,17.43
2019-02-05T01:20:01.598Z,17.43
2019-02-05T01:21:01.734Z,17.43
2019-02-05T01:22:01.816Z,17.43
2019-02-05T01:23:01.835Z,17.43
2019-02-05T01:24:01.864Z,17.43
2019-02-05T01:25:01.852Z,17.42
2019-02-05T01:26:01.397Z,17.41
2019-02-05T01:27:01.880Z,17.41
2019-02-05T01:28:01.469Z,17.41
2019-02-05T01:29:01.305Z,17.41
2019-02-05T01:30:02.010Z,17.41
2019-02-05T01:31:01.808Z,17.41
2019-02-05T01:32:01.673Z,17.41
2019-02-05T01:33:01.378Z,17.39
2019-02-05T01:34:01.734Z,17.39
2019-02-05T01:35:01.417Z,17.39
2019-02-05T01:36:02.069Z,17.38
2019-02-05T01:37:01.761Z,17.37
2019-02-05T01:38:01.436Z,17.37
2019-02-05T01:39:01.431Z,17.37
2019-02-05T01:40:01.393Z,17.38
2019-02-05T01:41:02.257Z,17.36
2019-02-05T01:42:03.052Z,17.36
2019-02-05T01:43:02.374Z,17.36
2019-02-05T01:44:01.768Z,17.35
2019-02-05T01:45:02.420Z,17.34
2019-02-05T01:46:01.317Z,17.34
2019-02-05T01:47:01.588Z,17.33
2019-02-05T01:48:01.748Z,17.34
2019-02-05T01:49:01.312Z,17.34
2019-02-05T01:50:01.481Z,17.34
2019-02-05T01:51:02.261Z,17.33
2019-02-05T01:52:01.625Z,17.33
2019-02-05T01:53:01.469Z,17.33
2019-02-05T01:54:01.775Z,17.32
2019-02-05T01:55:01.744Z,17.33
2019-02-05T01:56:01.434Z,17.33
2019-02-05T01:57:01.813Z,17.32
2019-02-05T01:58:01.684Z,17.32
2019-02-05T01:59:01.584Z,17.32
2019-02-05T02:00:01.695Z,17.3
2019-02-05T02:01:01.715Z,17.31
2019-02-05T02:02:01.643Z,17.29
2019-02-05T02:03:01.834Z,17.29
2019-02-05T02:04:01.345Z,17.29
2019-02-05T02:05:01.479Z,17.29
2019-02-05T02:06:01.872Z,17.27
2019-02-05T02:07:01.414Z,17.28
2019-02-05T02:08:01.697Z,17.28
2019-02-05T02:09:02.331Z,17.28
2019-02-05T02:10:01.439Z,17.3
2019-02-05T02:11:01.848Z,17.28
2019-02-05T02:12:01.702Z,17.27
2019-02-05T02:13:02.072Z,17.27
2019-02-05T02:14:01.606Z,17.27
2019-02-05T02:15:01.713Z,17.26
2019-02-05T02:16:01.791Z,17.26
2019-02-05T02:17:01.909Z,17.25
2019-02-05T02:18:02.051Z,17.24
2019-02-05T02:19:01.770Z,17.25
2019-02-05T02:20:02.020Z,17.24
2019-02-05T02:21:01.662Z,17.26
2019-02-05T02:22:01.351Z,17.24
2019-02-05T02:23:01.342Z,17.25
2019-02-05T02:24:01.438Z,17.25
2019-02-05T02:25:01.487Z,17.25
2019-02-05T02:26:01.581Z,17.24
2019-02-05T02:27:01.267Z,17.25
2019-02-05T02:28:01.414Z,17.23
2019-02-05T02:29:02.089Z,17.23
2019-02-05T02:30:01.432Z,17.24
2019-02-05T02:31:01.432Z,17.22
2019-02-05T02:32:02.095Z,17.21
2019-02-05T02:33:01.823Z,17.21
2019-02-05T02:34:01.714Z,17.21
2019-02-05T02:35:01.721Z,17.2
2019-02-05T02:36:01.454Z,17.19
2019-02-05T02:37:01.487Z,17.19
2019-02-05T02:38:01.447Z,17.2
2019-02-05T02:39:01.700Z,17.2
2019-02-05T02:40:01.956Z,17.18
2019-02-05T02:41:01.623Z,17.2
2019-02-05T02:42:01.804Z,17.19
2019-02-05T02:43:01.761Z,17.19
2019-02-05T02:44:01.302Z,17.18
2019-02-05T02:45:01.723Z,17.17
2019-02-05T02:46:01.761Z,17.17
2019-02-05T02:47:01.323Z,17.17
2019-02-05T02:48:01.347Z,17.17
2019-02-05T02:49:01.553Z,17.16
2019-02-05T02:50:01.364Z,17.16
2019-02-05T02:51:01.531Z,17.16
2019-02-05T02:52:01.951Z,17.15
2019-02-05T02:53:01.683Z,17.15
2019-02-05T02:54:01.807Z,17.15
2019-02-05T02:55:01.356Z,17.15
2019-02-05T02:56:01.670Z,17.13
2019-02-05T02:57:04.688Z,17.14
2019-02-05T02:58:01.748Z,17.15
2019-02-05T02:59:01.739Z,17.14
2019-02-05T03:00:01.473Z,17.13
2019-02-05T03:01:01.558Z,17.14
2019-02-05T03:02:01.337Z,17.14
2019-02-05T03:03:01.473Z,17.11
2019-02-05T03:04:01.934Z,17.11
2019-02-05T03:05:01.431Z,17.11
2019-02-05T03:06:01.885Z,17.12
2019-02-05T03:07:02.049Z,17.11
2019-02-05T03:08:01.751Z,17.1
2019-02-05T03:09:02.108Z,17.1
2019-02-05T03:10:01.771Z,17.1
2019-02-05T03:11:01.924Z,17.1
2019-02-05T03:12:01.383Z,17.1
2019-02-05T03:13:02.262Z,17.09
2019-02-05T03:14:01.386Z,17.08
2019-02-05T03:15:01.866Z,17.08
2019-02-05T03:16:01.364Z,17.08
2019-02-05T03:17:01.405Z,17.08
2019-02-05T03:18:01.511Z,17.09
2019-02-05T03:19:01.627Z,17.07
2019-02-05T03:20:01.423Z,17.07
2019-02-05T03:21:01.518Z,17.07
2019-02-05T03:22:01.314Z,17.08
2019-02-05T03:23:01.878Z,17.07
2019-02-05T03:24:01.883Z,17.07
2019-02-05T03:25:01.460Z,17.06
2019-02-05T03:26:01.983Z,17.06
2019-02-05T03:27:01.517Z,17.05
2019-02-05T03:28:01.224Z,17.04
2019-02-05T03:29:01.803Z,17.04
2019-02-05T03:30:01.729Z,17.03
2019-02-05T03:31:01.537Z,17.04
2019-02-05T03:32:01.359Z,17.04
2019-02-05T03:33:01.769Z,17.04
2019-02-05T03:34:01.629Z,17.03
2019-02-05T03:35:01.348Z,17.04
2019-02-05T03:36:01.578Z,17.02
2019-02-05T03:37:01.379Z,17.02
2019-02-05T03:38:01.400Z,17.02
2019-02-05T03:39:01.489Z,17.01
2019-02-05T03:40:01.230Z,17.01
2019-02-05T03:41:01.675Z,17.02
2019-02-05T03:42:01.719Z,17.02
2019-02-05T03:43:01.244Z,17.01
2019-02-05T03:44:01.703Z,17
2019-02-05T03:45:01.289Z,17.01
2019-02-05T03:46:01.354Z,17
2019-02-05T03:47:01.528Z,16.99
2019-02-05T03:48:02.072Z,16.98
2019-02-05T03:49:01.244Z,16.98
2019-02-05T03:50:01.601Z,16.99
2019-02-05T03:51:01.823Z,17
2019-02-05T03:52:01.260Z,16.99
2019-02-05T03:53:01.616Z,16.98
2019-02-05T03:54:01.593Z,16.98
2019-02-05T03:55:01.697Z,16.97
2019-02-05T03:56:01.413Z,16.97
2019-02-05T03:57:02.038Z,16.98
2019-02-05T03:58:01.366Z,16.97
2019-02-05T03:59:01.436Z,16.96
2019-02-05T04:00:01.265Z,16.96
2019-02-05T04:01:01.323Z,16.96
2019-02-05T04:02:01.953Z,16.96
2019-02-05T04:03:02.092Z,16.96
2019-02-05T04:04:01.378Z,16.97
2019-02-05T04:05:01.855Z,16.95
2019-02-05T04:06:01.789Z,16.95
2019-02-05T04:07:01.672Z,16.95
2019-02-05T04:08:01.556Z,16.95
2019-02-05T04:09:01.336Z,16.95
2019-02-05T04:10:01.721Z,16.94
2019-02-05T04:11:01.578Z,16.95
2019-02-05T04:12:01.713Z,16.95
2019-02-05T04:13:01.821Z,16.94
2019-02-05T04:14:01.930Z,16.93
2019-02-05T04:15:01.268Z,16.94
2019-02-05T04:16:01.770Z,16.94
2019-02-05T04:17:01.395Z,16.93
2019-02-05T04:18:01.668Z,16.92
2019-02-05T04:19:01.810Z,16.93
2019-02-05T04:20:01.745Z,16.91
2019-02-05T04:21:01.282Z,16.92
2019-02-05T04:22:01.771Z,16.91
2019-02-05T04:23:02.067Z,16.91
2019-02-05T04:24:01.535Z,16.91
2019-02-05T04:25:02.106Z,16.91
2019-02-05T04:26:01.659Z,16.9
2019-02-05T04:27:01.340Z,16.9
2019-02-05T04:28:01.421Z,16.89
2019-02-05T04:29:02.081Z,16.9
2019-02-05T04:30:01.636Z,16.89
2019-02-05T04:31:01.250Z,16.9
2019-02-05T04:32:01.887Z,16.9
2019-02-05T04:33:01.779Z,16.88
2019-02-05T04:34:02.285Z,16.88
2019-02-05T04:35:01.640Z,16.86
2019-02-05T04:36:01.904Z,16.88
2019-02-05T04:37:02.510Z,16.87
2019-02-05T04:38:01.696Z,16.87
2019-02-05T04:39:01.772Z,16.88
2019-02-05T04:40:01.366Z,16.88
2019-02-05T04:41:01.652Z,16.85
2019-02-05T04:42:01.928Z,16.87
2019-02-05T04:43:01.556Z,16.87
2019-02-05T04:44:01.409Z,16.87
2019-02-05T04:45:01.249Z,16.88
2019-02-05T04:46:01.354Z,16.88
2019-02-05T04:47:03.198Z,16.89
2019-02-05T04:48:01.394Z,16.89
2019-02-05T04:49:01.722Z,16.9
2019-02-05T04:50:01.337Z,16.91
2019-02-05T04:51:01.415Z,16.92
2019-02-05T04:52:01.779Z,16.92
2019-02-05T04:53:01.265Z,16.93
2019-02-05T04:54:01.531Z,16.94
2019-02-05T04:55:01.223Z,16.94
2019-02-05T04:56:01.717Z,16.96
2019-02-05T04:57:01.721Z,16.96
2019-02-05T04:58:01.939Z,16.96
2019-02-05T04:59:03.212Z,16.97
2019-02-05T05:00:01.499Z,16.98
2019-02-05T05:01:01.273Z,16.99
2019-02-05T05:02:01.428Z,16.99
2019-02-05T05:03:01.618Z,17.01
2019-02-05T05:04:01.476Z,17.02
2019-02-05T05:05:01.268Z,17.03
2019-02-05T05:06:01.982Z,17.05
2019-02-05T05:07:01.269Z,17.04
2019-02-05T05:08:01.346Z,17.07
2019-02-05T05:09:01.933Z,17.08
2019-02-05T05:10:01.297Z,17.1
2019-02-05T05:11:01.269Z,17.11
2019-02-05T05:12:01.668Z,17.13
2019-02-05T05:13:01.302Z,17.14
2019-02-05T05:14:01.757Z,17.15
2019-02-05T05:15:01.658Z,17.17
2019-02-05T05:16:01.362Z,17.19
2019-02-05T05:17:01.267Z,17.21
2019-02-05T05:18:01.700Z,17.23
2019-02-05T05:19:01.371Z,17.26
2019-02-05T05:20:01.426Z,17.28
2019-02-05T05:21:01.703Z,17.3
2019-02-05T05:22:01.396Z,17.32
2019-02-05T05:23:01.319Z,17.33
2019-02-05T05:24:01.489Z,17.35
2019-02-05T05:25:01.256Z,17.37
2019-02-05T05:26:01.477Z,17.38
2019-02-05T05:27:01.747Z,17.41
2019-02-05T05:28:09.618Z,17.43
2019-02-05T05:29:01.552Z,17.44
2019-02-05T05:30:01.475Z,17.46
2019-02-05T05:31:01.924Z,17.47
2019-02-05T05:32:01.480Z,17.48
2019-02-05T05:33:01.912Z,17.5
2019-02-05T05:34:01.241Z,17.52
2019-02-05T05:35:01.793Z,17.53
2019-02-05T05:36:01.418Z,17.55
2019-02-05T05:37:01.331Z,17.56
2019-02-05T05:38:01.703Z,17.57
2019-02-05T05:39:02.034Z,17.59
2019-02-05T05:40:01.513Z,17.6
2019-02-05T05:41:02.301Z,17.61
2019-02-05T05:42:01.752Z,17.63
2019-02-05T05:43:01.474Z,17.65
2019-02-05T05:44:01.455Z,17.65
2019-02-05T05:45:01.499Z,17.67
2019-02-05T05:46:01.769Z,17.68
2019-02-05T05:47:01.766Z,17.69
2019-02-05T05:48:01.509Z,17.7
2019-02-05T05:49:01.802Z,17.72
2019-02-05T05:50:01.369Z,17.73
2019-02-05T05:51:01.512Z,17.74
2019-02-05T05:52:01.691Z,17.76
2019-02-05T05:53:01.720Z,17.77
2019-02-05T05:54:01.201Z,17.78
2019-02-05T05:55:01.334Z,17.78
2019-02-05T05:56:01.741Z,17.79
2019-02-05T05:57:01.450Z,17.8
2019-02-05T05:58:03.167Z,17.81
2019-02-05T05:59:02.211Z,17.84
2019-02-05T06:00:03.022Z,17.84
2019-02-05T06:01:02.919Z,17.85
2019-02-05T06:02:01.695Z,17.86
2019-02-05T06:03:01.802Z,17.87
2019-02-05T06:04:03.285Z,17.88
2019-02-05T06:05:01.416Z,17.89
2019-02-05T06:06:01.353Z,17.9
2019-02-05T06:07:01.330Z,17.92
2019-02-05T06:08:01.498Z,17.92
2019-02-05T06:09:01.655Z,17.94
2019-02-05T06:10:01.415Z,17.94
2019-02-05T06:11:01.441Z,17.96
2019-02-05T06:12:01.733Z,17.96
2019-02-05T06:13:01.495Z,17.97
2019-02-05T06:14:01.880Z,17.98
2019-02-05T06:15:01.497Z,17.97
2019-02-05T06:16:01.709Z,18
2019-02-05T06:17:01.813Z,17.99
2019-02-05T06:18:01.240Z,18.01
2019-02-05T06:19:01.573Z,18.01
2019-02-05T06:20:01.795Z,18.02
2019-02-05T06:21:01.153Z,18.03
2019-02-05T06:22:01.265Z,18.04
2019-02-05T06:23:01.409Z,18.04
2019-02-05T06:24:01.551Z,18.11
2019-02-05T06:25:01.271Z,18.11
2019-02-05T06:26:01.554Z,18.12
2019-02-05T06:27:01.866Z,18.13
2019-02-05T06:28:01.269Z,18.16
2019-02-05T06:29:01.437Z,18.17
2019-02-05T06:30:01.977Z,18.19
2019-02-05T06:31:01.391Z,18.21
2019-02-05T06:32:01.299Z,18.24
2019-02-05T06:33:01.708Z,18.25
2019-02-05T06:34:01.204Z,18.26
2019-02-05T06:35:01.297Z,18.3
2019-02-05T06:36:01.147Z,18.31
2019-02-05T06:37:01.357Z,18.31
2019-02-05T06:38:01.583Z,18.33
2019-02-05T06:39:01.494Z,18.34
2019-02-05T06:40:01.282Z,18.36
2019-02-05T06:41:01.437Z,18.37
2019-02-05T06:42:02.724Z,18.38
2019-02-05T06:43:01.282Z,18.39
2019-02-05T06:44:01.461Z,18.41
2019-02-05T06:45:01.180Z,18.42
2019-02-05T06:46:01.364Z,18.44
2019-02-05T06:47:01.211Z,18.44
2019-02-05T06:48:01.346Z,18.44
2019-02-05T06:49:01.630Z,18.46
2019-02-05T06:50:01.171Z,18.47
2019-02-05T06:51:01.433Z,18.48
2019-02-05T06:52:01.299Z,18.48
2019-02-05T06:53:01.163Z,18.49
2019-02-05T06:54:01.390Z,18.49
2019-02-05T06:55:01.417Z,18.49
2019-02-05T06:56:01.650Z,18.5
2019-02-05T06:57:01.303Z,18.51
2019-02-05T06:58:01.374Z,18.51
2019-02-05T06:59:01.371Z,18.52
2019-02-05T07:00:01.214Z,18.52
2019-02-05T07:01:01.571Z,18.53
2019-02-05T07:02:01.275Z,18.54
2019-02-05T07:03:01.381Z,18.54
2019-02-05T07:04:01.918Z,18.55
2019-02-05T07:05:01.670Z,18.56
2019-02-05T07:06:01.652Z,18.56
2019-02-05T07:07:01.972Z,18.56
2019-02-05T07:08:01.535Z,18.57
2019-02-05T07:09:01.270Z,18.58
2019-02-05T07:10:01.416Z,18.58
2019-02-05T07:11:01.459Z,18.58
2019-02-05T07:12:01.345Z,18.58
2019-02-05T07:13:03.308Z,18.59
2019-02-05T07:14:01.215Z,18.59
2019-02-05T07:15:01.924Z,18.59
2019-02-05T07:16:01.927Z,18.58
2019-02-05T07:17:02.211Z,18.57
2019-02-05T07:18:01.500Z,18.58
2019-02-05T07:19:01.482Z,18.56
2019-02-05T07:20:01.337Z,18.57
2019-02-05T07:21:01.259Z,18.56
2019-02-05T07:22:01.714Z,18.56
2019-02-05T07:23:01.816Z,18.55
2019-02-05T07:24:01.680Z,18.54
2019-02-05T07:25:02.684Z,18.54
2019-02-05T07:26:01.263Z,18.53
2019-02-05T07:27:01.263Z,18.53
2019-02-05T07:28:01.408Z,18.52
2019-02-05T07:29:02.196Z,18.51
2019-02-05T07:30:01.829Z,18.51
2019-02-05T07:31:01.477Z,18.5
2019-02-05T07:32:01.704Z,18.5
2019-02-05T07:33:01.722Z,18.5
2019-02-05T07:34:01.448Z,18.5
2019-02-05T07:35:01.430Z,18.49
2019-02-05T07:36:01.237Z,18.49
2019-02-05T07:37:01.430Z,18.48
2019-02-05T07:38:01.549Z,18.48
2019-02-05T07:39:02.187Z,18.48
2019-02-05T07:40:01.913Z,18.49
2019-02-05T07:41:02.267Z,18.48
2019-02-05T07:42:01.406Z,18.49
2019-02-05T07:43:01.412Z,18.48
2019-02-05T07:44:01.325Z,18.48
2019-02-05T07:45:01.612Z,18.48
2019-02-05T07:46:01.437Z,18.49
2019-02-05T07:47:01.337Z,18.48
2019-02-05T07:48:01.252Z,18.5
2019-02-05T07:49:01.203Z,18.49
2019-02-05T07:50:01.214Z,18.51
2019-02-05T07:51:01.191Z,18.51
2019-02-05T07:52:01.342Z,18.51
2019-02-05T07:53:01.306Z,18.51
2019-02-05T07:54:01.387Z,18.51
2019-02-05T07:55:01.134Z,18.51
2019-02-05T07:56:01.285Z,18.52
2019-02-05T07:57:01.680Z,18.53
2019-02-05T07:58:01.130Z,18.53
2019-02-05T07:59:09.751Z,18.53
2019-02-05T08:00:01.491Z,18.54
2019-02-05T08:01:01.697Z,18.55
2019-02-05T08:02:03.297Z,18.54
2019-02-05T08:03:01.435Z,18.56
2019-02-05T08:04:01.473Z,18.57
2019-02-05T08:05:01.943Z,18.57
2019-02-05T08:06:01.285Z,18.57
2019-02-05T08:07:01.488Z,18.58
2019-02-05T08:08:01.541Z,18.59
2019-02-05T08:09:01.144Z,18.6
2019-02-05T08:10:01.298Z,18.6
2019-02-05T08:11:01.139Z,18.61
2019-02-05T08:12:01.284Z,18.62
2019-02-05T08:13:01.276Z,18.62
2019-02-05T08:14:01.177Z,18.64
2019-02-05T08:15:01.645Z,18.63
2019-02-05T08:16:01.539Z,18.64
2019-02-05T08:17:01.839Z,18.65
2019-02-05T08:18:01.066Z,18.65
2019-02-05T08:19:01.754Z,18.66
2019-02-05T08:20:01.678Z,18.67
2019-02-05T08:21:01.474Z,18.67
2019-02-05T08:22:01.653Z,18.68
2019-02-05T08:23:01.706Z,18.69
2019-02-05T08:24:01.219Z,18.69
2019-02-05T08:25:01.387Z,18.7
2019-02-05T08:26:01.477Z,18.7
2019-02-05T08:27:01.402Z,18.71
2019-02-05T08:28:01.283Z,18.73
2019-02-05T08:29:01.435Z,18.72
2019-02-05T08:30:01.383Z,18.74
2019-02-05T08:31:01.316Z,18.74
2019-02-05T08:32:01.303Z,18.74
2019-02-05T08:33:01.360Z,18.74
2019-02-05T08:34:03.278Z,18.75
2019-02-05T08:35:01.284Z,18.76
2019-02-05T08:36:01.039Z,18.77
2019-02-05T08:37:01.229Z,18.77
2019-02-05T08:38:01.535Z,18.77
2019-02-05T08:39:01.237Z,18.78
2019-02-05T08:40:01.480Z,18.79
2019-02-05T08:41:01.979Z,18.79
2019-02-05T08:42:01.619Z,18.81
2019-02-05T08:43:01.325Z,18.8
2019-02-05T08:44:01.332Z,18.82
2019-02-05T08:45:01.128Z,18.82
2019-02-05T08:46:01.536Z,18.83
2019-02-05T08:47:01.740Z,18.83
2019-02-05T08:48:01.552Z,18.86
2019-02-05T08:49:01.215Z,18.86
2019-02-05T08:50:01.316Z,18.88
2019-02-05T08:51:01.298Z,18.87
2019-02-05T08:52:01.641Z,18.88
2019-02-05T08:53:02.270Z,18.88
2019-02-05T08:54:01.486Z,18.88
2019-02-05T08:55:01.371Z,18.9
2019-02-05T08:56:01.428Z,18.9
2019-02-05T08:57:01.313Z,18.92
2019-02-05T08:58:01.259Z,18.92
2019-02-05T08:59:02.241Z,18.93
2019-02-05T09:00:01.543Z,18.94
2019-02-05T09:01:01.437Z,18.95
2019-02-05T09:02:01.375Z,18.95
2019-02-05T09:03:01.155Z,18.96
2019-02-05T09:04:01.492Z,18.99
2019-02-05T09:05:01.769Z,18.98
2019-02-05T09:06:01.475Z,18.98
2019-02-05T09:07:01.256Z,18.97
2019-02-05T09:08:02.806Z,18.97
2019-02-05T09:09:01.250Z,18.97
2019-02-05T09:10:01.302Z,18.97
2019-02-05T09:11:01.278Z,18.96
2019-02-05T09:12:01.293Z,18.97
2019-02-05T09:13:01.609Z,18.96
2019-02-05T09:14:10.476Z,18.96
2019-02-05T09:15:01.334Z,18.96
2019-02-05T09:16:01.375Z,18.96
2019-02-05T09:17:01.684Z,18.97
2019-02-05T09:18:01.368Z,18.97
2019-02-05T09:19:01.488Z,18.96
2019-02-05T09:20:01.809Z,18.96
2019-02-05T09:21:01.373Z,18.97
2019-02-05T09:22:01.370Z,18.97
2019-02-05T09:23:01.349Z,18.96
2019-02-05T09:24:01.501Z,18.96
2019-02-05T09:25:01.305Z,18.96
2019-02-05T09:26:01.640Z,18.94
2019-02-05T09:27:01.246Z,18.96
2019-02-05T09:28:01.622Z,18.96
2019-02-05T09:29:01.231Z,18.95
2019-02-05T09:30:01.350Z,18.96
2019-02-05T09:31:01.520Z,18.96
2019-02-05T09:32:01.742Z,18.96
2019-02-05T09:33:01.107Z,18.95
2019-02-05T09:34:01.214Z,18.95
2019-02-05T09:35:01.218Z,18.93
2019-02-05T09:36:01.382Z,18.93
2019-02-05T09:37:01.223Z,18.93
2019-02-05T09:38:01.729Z,18.92
2019-02-05T09:39:01.082Z,18.92
2019-02-05T09:40:01.234Z,18.91
2019-02-05T09:41:01.485Z,18.9
2019-02-05T09:42:01.218Z,18.89
2019-02-05T09:43:03.143Z,18.89
2019-02-05T09:44:01.237Z,18.88
2019-02-05T09:45:01.392Z,18.88
2019-02-05T09:46:01.199Z,18.87
2019-02-05T09:47:01.304Z,18.87
2019-02-05T09:48:01.215Z,18.87
2019-02-05T09:49:01.241Z,18.86
2019-02-05T09:50:01.281Z,18.86
2019-02-05T09:51:01.511Z,18.86
2019-02-05T09:52:01.684Z,18.86
2019-02-05T09:53:01.363Z,18.85
2019-02-05T09:54:01.075Z,18.85
2019-02-05T09:55:01.197Z,18.85
2019-02-05T09:56:01.320Z,18.84
2019-02-05T09:57:02.163Z,18.84
2019-02-05T09:58:01.809Z,18.84
2019-02-05T09:59:01.273Z,18.84
2019-02-05T10:00:01.221Z,18.83
2019-02-05T10:01:01.435Z,18.83
2019-02-05T10:02:01.264Z,18.82
2019-02-05T10:03:01.214Z,18.83
2019-02-05T10:04:02.259Z,18.83
2019-02-05T10:05:01.304Z,18.82
2019-02-05T10:06:01.416Z,18.82
2019-02-05T10:07:01.706Z,18.83
2019-02-05T10:08:01.678Z,18.82
2019-02-05T10:09:01.201Z,18.81
2019-02-05T10:10:01.655Z,18.82
2019-02-05T10:11:01.530Z,18.81
2019-02-05T10:12:01.254Z,18.81
2019-02-05T10:13:01.427Z,18.82
2019-02-05T10:14:01.361Z,18.81
2019-02-05T10:15:01.464Z,18.81
2019-02-05T10:16:01.650Z,18.81
2019-02-05T10:17:01.696Z,18.81
2019-02-05T10:18:01.259Z,18.81
2019-02-05T10:19:01.512Z,18.81
2019-02-05T10:20:01.728Z,18.82
2019-02-05T10:21:01.244Z,18.81
2019-02-05T10:22:01.250Z,18.81
2019-02-05T10:23:01.279Z,18.81
2019-02-05T10:24:01.286Z,18.81
2019-02-05T10:25:01.654Z,18.82
2019-02-05T10:26:01.411Z,18.81
2019-02-05T10:27:01.751Z,18.81
2019-02-05T10:28:01.352Z,18.81
2019-02-05T10:29:01.486Z,18.81
2019-02-05T10:30:01.238Z,18.82
2019-02-05T10:31:01.312Z,18.82
2019-02-05T10:32:01.107Z,18.81
2019-02-05T10:33:01.569Z,18.81
2019-02-05T10:34:01.272Z,18.82
2019-02-05T10:35:01.469Z,18.81
2019-02-05T10:36:01.719Z,18.81
2019-02-05T10:37:01.532Z,18.81
2019-02-05T10:38:01.448Z,18.8
2019-02-05T10:39:01.313Z,18.8
2019-02-05T10:40:01.328Z,18.81
2019-02-05T10:41:01.410Z,18.81
2019-02-05T10:42:01.460Z,18.81
2019-02-05T10:43:01.836Z,18.8
2019-02-05T10:44:03.014Z,18.81
2019-02-05T10:45:01.183Z,18.81
2019-02-05T10:46:01.815Z,18.8
2019-02-05T10:47:01.397Z,18.81
2019-02-05T10:48:01.333Z,18.81
2019-02-05T10:49:03.234Z,18.81
2019-02-05T10:50:01.383Z,18.81
2019-02-05T10:51:01.277Z,18.81
2019-02-05T10:52:01.797Z,18.81
2019-02-05T10:53:01.331Z,18.81
2019-02-05T10:54:01.188Z,18.81
2019-02-05T10:55:03.182Z,18.81
2019-02-05T10:56:01.622Z,18.81
2019-02-05T10:57:01.672Z,18.8
2019-02-05T10:58:01.196Z,18.81
2019-02-05T10:59:01.600Z,18.81
2019-02-05T11:00:08.666Z,18.8
2019-02-05T11:01:01.233Z,18.81
2019-02-05T11:02:02.263Z,18.81
2019-02-05T11:03:01.051Z,18.81
2019-02-05T11:04:01.691Z,18.81
2019-02-05T11:05:01.223Z,18.81
2019-02-05T11:06:01.453Z,18.8
2019-02-05T11:07:01.458Z,18.81
2019-02-05T11:08:01.526Z,18.81
2019-02-05T11:09:01.164Z,18.81
2019-02-05T11:10:01.458Z,18.8
2019-02-05T11:11:03.059Z,18.8
2019-02-05T11:12:02.195Z,18.8
2019-02-05T11:13:01.396Z,18.82
2019-02-05T11:14:01.279Z,18.81
2019-02-05T11:15:01.625Z,18.82
2019-02-05T11:16:01.908Z,18.81
2019-02-05T11:17:01.678Z,18.81
2019-02-05T11:18:03.035Z,18.81
2019-02-05T11:19:01.235Z,18.81
2019-02-05T11:20:01.331Z,18.8
2019-02-05T11:21:04.216Z,18.81
2019-02-05T11:22:01.496Z,18.8
2019-02-05T11:23:01.323Z,18.8
2019-02-05T11:24:00.995Z,18.81
2019-02-05T11:25:01.440Z,18.81
2019-02-05T11:26:01.273Z,18.8
2019-02-05T11:27:00.987Z,18.78
2019-02-05T11:28:01.547Z,18.82
2019-02-05T11:29:01.385Z,18.83
2019-02-05T11:30:01.278Z,18.84
2019-02-05T11:31:01.668Z,18.85
2019-02-05T11:32:01.084Z,18.86
2019-02-05T11:33:01.410Z,18.88
2019-02-05T11:34:01.303Z,18.89
2019-02-05T11:35:01.979Z,18.91
2019-02-05T11:36:01.437Z,18.93
2019-02-05T11:37:01.230Z,18.95
2019-02-05T11:38:01.383Z,18.96
2019-02-05T11:39:00.965Z,18.98
2019-02-05T11:40:01.535Z,19
2019-02-05T11:41:01.460Z,19
2019-02-05T11:42:01.100Z,19.01
2019-02-05T11:43:01.373Z,19.03
2019-02-05T11:44:01.614Z,19.04
2019-02-05T11:45:02.325Z,19.05
2019-02-05T11:46:01.461Z,19.06
2019-02-05T11:47:03.772Z,19.08
2019-02-05T11:48:01.419Z,19.08
2019-02-05T11:49:01.271Z,19.11
2019-02-05T11:50:02.265Z,19.12
2019-02-05T11:51:01.082Z,19.12
2019-02-05T11:52:01.833Z,19.13
2019-02-05T11:53:00.891Z,19.14
2019-02-05T11:54:01.223Z,19.16
2019-02-05T11:55:01.691Z,19.17
2019-02-05T11:56:01.968Z,19.19
2019-02-05T11:57:01.268Z,19.17
2019-02-05T11:58:01.676Z,19.17
2019-02-05T11:59:01.466Z,19.17
2019-02-05T12:00:01.487Z,19.17
2019-02-05T12:01:02.000Z,19.18
2019-02-05T12:02:01.928Z,19.17
2019-02-05T12:03:01.712Z,19.18
2019-02-05T12:04:01.814Z,19.18
2019-02-05T12:05:02.334Z,19.18
2019-02-05T12:06:01.563Z,19.23
2019-02-05T12:07:01.854Z,19.23
2019-02-05T12:08:02.988Z,19.23
2019-02-05T12:09:01.095Z,19.24
2019-02-05T12:10:02.065Z,19.24
2019-02-05T12:11:02.391Z,19.24
2019-02-05T12:12:01.366Z,19.24
2019-02-05T12:13:01.238Z,19.26
2019-02-05T12:14:01.887Z,19.26
2019-02-05T12:15:01.037Z,19.3
2019-02-05T12:16:01.886Z,19.31
2019-02-05T12:17:01.092Z,19.32
2019-02-05T12:18:01.699Z,19.32
2019-02-05T12:19:03.147Z,19.33
2019-02-05T12:20:01.143Z,19.33
2019-02-05T12:21:01.204Z,19.33
2019-02-05T12:22:01.240Z,19.34
2019-02-05T12:23:01.443Z,19.34
2019-02-05T12:24:01.127Z,19.34
2019-02-05T12:25:01.229Z,19.36
2019-02-05T12:26:01.861Z,19.37
2019-02-05T12:27:01.469Z,19.39
2019-02-05T12:28:01.217Z,19.38
2019-02-05T12:29:01.032Z,19.4
2019-02-05T12:30:01.806Z,19.4
2019-02-05T12:31:01.625Z,19.41
2019-02-05T12:32:02.102Z,19.43
2019-02-05T12:33:01.954Z,19.43
2019-02-05T12:34:01.528Z,19.44
2019-02-05T12:35:01.653Z,19.45
2019-02-05T12:36:01.208Z,19.48
2019-02-05T12:37:01.316Z,19.47
2019-02-05T12:38:01.468Z,19.45
2019-02-05T12:39:01.453Z,19.44
2019-02-05T12:40:01.725Z,19.44
2019-02-05T12:41:01.278Z,19.44
2019-02-05T12:42:02.914Z,19.43
2019-02-05T12:43:01.277Z,19.44
2019-02-05T12:44:01.819Z,19.44
2019-02-05T12:45:01.120Z,19.44
2019-02-05T12:46:01.584Z,19.44
2019-02-05T12:47:01.350Z,19.44
2019-02-05T12:48:01.431Z,19.44
2019-02-05T12:49:01.620Z,19.44
2019-02-05T12:50:01.428Z,19.43
2019-02-05T12:51:01.622Z,19.44
2019-02-05T12:52:01.262Z,19.43
2019-02-05T12:53:01.108Z,19.44
2019-02-05T12:54:01.148Z,19.44
2019-02-05T12:55:12.574Z,19.45